Bremerton National Airport Bremerton US
ICAO: KPWT
IATA: PWT
Category: Medium
Scheduled Services: No

Elevation: 444 ft
TransAlt. 18000 ft.

Airport Communications:
SEATTLE APP/DEP:127.1
AWOS 3:121.2
CTAF/UNICOM:123.05

KPWT Zoom In..

Runways:

(A) RW 02 length 6000 ft width 150 ft
---- / hdg 17

(B) RW 20 length 6000 ft width 150 ft
ILS 111.10 / hdg 197

Location; KPWT
Day. 20 / Time. 09.56 Zulu
* Altimeter: 30.27
* Temperature: 06° c. 42.8°f.
* Wind from: 000° Speed 00 kn.
Dewpoint: 04° c.
Visibility: 10 Statute Miles.
Clouds: Overcast 11000 ft.

KPWT 200956Z AUTO 00000KT 10SM OVC110 06/04 A3027 RMK AO2 SLP270 T00610044 PNO $


Wind - Calm.

  YouTube Music Video
 
jpsmedia.com for Web Design  worldairports.se 2018   terms of use